ěÝzenÝ letovÚho provozu ╚eskÚ republiky
Letiste: LKCS Aktualizace: 27.02.2024 12:00:52  UTC
 METAR LKCS 27.02. 12:00 ...
METAR LKCS 271200Z AUTO 05003KT 010V080 9999 OVC011/// 05/02 Q1011=